createdAt,value
2022-10-06T00:01:19.203Z,12.33
2022-10-06T00:03:48.740Z,11.73
2022-10-06T00:06:18.236Z,10.03
2022-10-06T00:08:47.679Z,9.13
2022-10-06T00:11:16.725Z,12.80
2022-10-06T00:13:50.472Z,14.40
2022-10-06T00:16:21.872Z,11.43
2022-10-06T00:18:50.675Z,9.75
2022-10-06T00:21:19.129Z,9.80
2022-10-06T00:23:47.647Z,9.20
2022-10-06T00:26:16.913Z,10.20
2022-10-06T00:28:50.554Z,12.67
2022-10-06T00:31:20.952Z,7.73
2022-10-06T00:33:51.874Z,15.43
2022-10-06T00:36:20.613Z,10.80
2022-10-06T00:38:49.079Z,14.43
2022-10-06T00:41:18.754Z,17.80
2022-10-06T00:43:50.317Z,11.10
2022-10-06T00:46:28.464Z,11.03
2022-10-06T00:49:04.206Z,7.70
2022-10-06T00:51:42.140Z,9.00
2022-10-06T00:54:11.048Z,9.50
2022-10-06T00:56:40.466Z,7.17
2022-10-06T00:59:12.197Z,9.83
2022-10-06T01:01:44.214Z,8.60
2022-10-06T01:04:17.553Z,10.13
2022-10-06T01:06:49.564Z,10.28
2022-10-06T01:09:22.209Z,7.97
2022-10-06T01:11:53.304Z,8.73
2022-10-06T01:14:24.070Z,8.90
2022-10-06T01:17:00.526Z,9.25
2022-10-06T01:19:46.753Z,9.77
2022-10-06T01:22:17.757Z,7.77
2022-10-06T01:24:52.310Z,8.50
2022-10-06T01:27:21.996Z,7.77
2022-10-06T01:29:56.108Z,8.27
2022-10-06T01:34:54.698Z,9.10
2022-10-06T01:37:23.922Z,12.23
2022-10-06T01:39:55.118Z,10.40
2022-10-06T01:42:25.356Z,6.40
2022-10-06T01:44:53.996Z,10.30
2022-10-06T01:47:22.819Z,9.30
2022-10-06T01:49:51.229Z,11.70
2022-10-06T01:52:20.124Z,12.20
2022-10-06T01:54:49.045Z,11.97
2022-10-06T01:57:17.546Z,8.53
2022-10-06T01:59:46.040Z,10.60
2022-10-06T02:02:14.666Z,7.77
2022-10-06T02:04:43.104Z,9.17
2022-10-06T02:07:12.063Z,9.10
2022-10-06T02:09:46.384Z,9.97
2022-10-06T02:12:17.016Z,7.77
2022-10-06T02:14:48.277Z,9.10
2022-10-06T02:17:17.162Z,7.80
2022-10-06T02:19:47.788Z,9.27
2022-10-06T02:22:16.876Z,9.90
2022-10-06T02:24:45.358Z,9.23
2022-10-06T02:27:14.000Z,10.43
2022-10-06T02:29:42.477Z,10.57
2022-10-06T02:32:11.053Z,8.73
2022-10-06T02:34:39.547Z,9.67
2022-10-06T02:37:08.278Z,8.70
2022-10-06T02:39:37.186Z,8.03
2022-10-06T02:42:14.461Z,9.10
2022-10-06T02:44:46.028Z,11.20
2022-10-06T02:47:15.984Z,7.73
2022-10-06T02:49:45.370Z,10.80
2022-10-06T02:52:14.896Z,8.10
2022-10-06T02:54:43.342Z,8.60
2022-10-06T02:57:13.703Z,7.57
2022-10-06T02:59:42.841Z,7.27
2022-10-06T03:02:11.353Z,8.40
2022-10-06T03:04:39.960Z,11.47
2022-10-06T03:07:08.665Z,8.60
2022-10-06T03:09:39.331Z,7.10
2022-10-06T03:12:10.236Z,5.83
2022-10-06T03:14:41.010Z,6.97
2022-10-06T03:17:09.876Z,9.97
2022-10-06T03:19:40.960Z,5.97
2022-10-06T03:22:10.476Z,7.10
2022-10-06T03:24:44.054Z,9.60
2022-10-06T03:27:12.733Z,9.77
2022-10-06T03:29:41.429Z,7.00
2022-10-06T03:32:10.214Z,6.87
2022-10-06T03:34:38.912Z,7.50
2022-10-06T03:37:09.427Z,10.40
2022-10-06T03:39:37.951Z,7.37
2022-10-06T03:42:07.458Z,6.57
2022-10-06T03:44:36.436Z,9.27
2022-10-06T03:47:10.323Z,10.17
2022-10-06T03:49:42.633Z,7.60
2022-10-06T03:52:11.380Z,8.77
2022-10-06T03:54:40.265Z,7.73
2022-10-06T03:57:09.162Z,7.67
2022-10-06T03:59:38.464Z,10.57
2022-10-06T04:02:11.642Z,12.90
2022-10-06T04:04:40.858Z,10.07
2022-10-06T04:07:12.031Z,6.63
2022-10-06T04:09:41.740Z,6.03
2022-10-06T04:12:12.803Z,11.40
2022-10-06T04:14:50.147Z,9.73
2022-10-06T04:17:18.792Z,7.73
2022-10-06T04:19:47.825Z,9.30
2022-10-06T04:22:16.552Z,7.87
2022-10-06T04:24:46.155Z,8.80
2022-10-06T04:27:27.560Z,8.83
2022-10-06T04:32:41.307Z,7.33
2022-10-06T04:35:10.381Z,7.10
2022-10-06T04:37:40.779Z,8.67
2022-10-06T04:40:11.349Z,11.67
2022-10-06T04:42:42.147Z,5.97
2022-10-06T04:45:15.698Z,6.95
2022-10-06T04:47:45.054Z,11.23
2022-10-06T04:50:14.099Z,10.40
2022-10-06T04:53:02.191Z,8.23
2022-10-06T04:55:31.521Z,8.60
2022-10-06T04:58:00.424Z,8.00
2022-10-06T05:00:30.098Z,9.20
2022-10-06T05:03:03.418Z,7.60
2022-10-06T05:05:33.343Z,6.43
2022-10-06T05:08:06.908Z,9.03
2022-10-06T05:10:36.476Z,10.53
2022-10-06T05:13:05.823Z,9.20
2022-10-06T05:15:34.732Z,9.00
2022-10-06T05:18:05.936Z,8.47
2022-10-06T05:20:35.258Z,9.47
2022-10-06T05:23:07.632Z,7.27
2022-10-06T05:25:36.198Z,8.33
2022-10-06T05:28:06.069Z,7.20
2022-10-06T05:30:34.925Z,7.27
2022-10-06T05:33:04.506Z,8.50
2022-10-06T05:35:33.610Z,9.90
2022-10-06T05:38:02.134Z,14.70
2022-10-06T05:40:30.878Z,6.97
2022-10-06T05:43:00.109Z,7.07
2022-10-06T05:45:29.191Z,7.13
2022-10-06T05:47:58.072Z,6.90
2022-10-06T05:50:26.835Z,10.40
2022-10-06T05:52:56.334Z,8.00
2022-10-06T05:55:26.094Z,7.30
2022-10-06T05:57:55.779Z,6.93
2022-10-06T06:00:27.386Z,9.90
2022-10-06T06:02:56.164Z,11.47
2022-10-06T06:05:25.033Z,7.93
2022-10-06T06:07:53.633Z,7.60
2022-10-06T06:10:22.389Z,8.40
2022-10-06T06:12:51.182Z,8.83
2022-10-06T06:16:01.406Z,16.93
2022-10-06T06:21:02.473Z,10.00
2022-10-06T06:23:36.817Z,8.23
2022-10-06T06:26:10.568Z,9.07
2022-10-06T06:28:45.711Z,6.90
2022-10-06T06:31:20.309Z,9.33
2022-10-06T06:33:53.372Z,7.80
2022-10-06T06:36:24.914Z,7.57
2022-10-06T06:38:54.889Z,7.53
2022-10-06T06:41:26.321Z,8.47
2022-10-06T06:43:59.916Z,14.80
2022-10-06T06:46:38.783Z,9.70
2022-10-06T06:49:13.677Z,7.97
2022-10-06T06:51:49.322Z,9.10
2022-10-06T06:54:20.396Z,9.27
2022-10-06T06:56:54.628Z,16.20
2022-10-06T06:59:24.694Z,9.60
2022-10-06T07:01:57.123Z,6.30
2022-10-06T07:04:27.070Z,6.87
2022-10-06T07:06:57.566Z,8.47
2022-10-06T07:09:29.391Z,8.55
2022-10-06T07:14:31.588Z,8.97
2022-10-06T07:17:19.927Z,7.20
2022-10-06T07:20:09.605Z,8.90
2022-10-06T07:23:02.367Z,7.93
2022-10-06T07:25:31.534Z,9.50
2022-10-06T07:28:04.194Z,7.70
2022-10-06T07:30:40.895Z,8.00
2022-10-06T07:33:15.953Z,8.70
2022-10-06T07:35:46.136Z,8.40
2022-10-06T07:38:16.804Z,8.77
2022-10-06T07:41:17.820Z,15.47
2022-10-06T07:43:46.345Z,7.97
2022-10-06T07:46:15.593Z,8.10
2022-10-06T07:48:49.960Z,8.80
2022-10-06T07:51:19.828Z,6.50
2022-10-06T07:53:50.272Z,7.27
2022-10-06T07:59:00.885Z,6.97
2022-10-06T08:01:30.675Z,6.40
2022-10-06T08:03:59.262Z,10.40
2022-10-06T08:06:27.730Z,8.13
2022-10-06T08:08:56.714Z,9.00
2022-10-06T08:11:25.222Z,10.03
2022-10-06T08:13:53.733Z,8.23
2022-10-06T08:16:29.502Z,7.77
2022-10-06T08:18:59.034Z,6.93
2022-10-06T08:21:29.540Z,8.53
2022-10-06T08:23:59.121Z,9.20
2022-10-06T08:26:29.614Z,6.37
2022-10-06T08:29:02.389Z,7.17
2022-10-06T08:31:32.394Z,7.60
2022-10-06T08:34:01.571Z,8.53
2022-10-06T08:36:32.372Z,6.13
2022-10-06T08:39:01.934Z,9.23
2022-10-06T08:41:40.053Z,7.77
2022-10-06T08:44:21.639Z,7.17
2022-10-06T08:46:55.355Z,10.70
2022-10-06T08:52:04.574Z,7.03
2022-10-06T08:54:44.164Z,7.37
2022-10-06T08:57:19.357Z,8.63
2022-10-06T08:59:52.875Z,6.03
2022-10-06T09:02:28.977Z,5.50
2022-10-06T09:05:01.611Z,8.40
2022-10-06T09:07:41.071Z,6.97
2022-10-06T09:10:25.407Z,8.15
2022-10-06T09:13:00.449Z,5.63
2022-10-06T09:15:37.615Z,5.47
2022-10-06T09:18:15.806Z,7.97
2022-10-06T09:20:51.184Z,7.23
2022-10-06T09:23:41.454Z,6.70
2022-10-06T09:26:13.103Z,11.63
2022-10-06T09:28:45.755Z,7.50
2022-10-06T09:31:22.001Z,5.43
2022-10-06T09:33:54.799Z,5.10
2022-10-06T09:36:23.811Z,4.90
2022-10-06T09:38:54.124Z,6.97
2022-10-06T09:41:31.833Z,8.23
2022-10-06T09:44:03.236Z,7.43
2022-10-06T09:46:34.251Z,9.77
2022-10-06T09:49:21.177Z,8.55
2022-10-06T09:52:14.661Z,5.87
2022-10-06T09:55:02.446Z,7.27
2022-10-06T09:57:31.883Z,6.43
2022-10-06T10:00:02.872Z,8.97
2022-10-06T10:02:36.499Z,6.40
2022-10-06T10:05:18.224Z,7.80
2022-10-06T10:08:00.255Z,5.13
2022-10-06T10:10:29.036Z,5.83
2022-10-06T10:12:59.265Z,7.10
2022-10-06T10:15:31.508Z,7.53
2022-10-06T10:18:02.825Z,7.27
2022-10-06T10:20:35.885Z,8.17
2022-10-06T10:23:27.221Z,7.33
2022-10-06T10:26:26.465Z,6.43
2022-10-06T10:29:33.435Z,7.47
2022-10-06T10:32:12.179Z,8.60
2022-10-06T10:34:58.956Z,8.27
2022-10-06T10:37:34.956Z,7.73
2022-10-06T10:40:11.829Z,11.90
2022-10-06T10:42:47.471Z,6.57
2022-10-06T10:45:22.808Z,5.27
2022-10-06T10:47:51.691Z,6.13
2022-10-06T10:50:26.498Z,6.13
2022-10-06T10:53:01.678Z,7.37
2022-10-06T10:55:34.575Z,6.40
2022-10-06T10:58:13.463Z,6.92
2022-10-06T11:00:47.121Z,6.73
2022-10-06T11:06:03.287Z,14.33
2022-10-06T11:08:40.154Z,7.40
2022-10-06T11:11:16.939Z,7.10
2022-10-06T11:13:50.142Z,8.57
2022-10-06T11:16:34.348Z,6.15
2022-10-06T11:19:29.746Z,7.47
2022-10-06T11:22:05.349Z,5.87
2022-10-06T11:24:45.916Z,4.93
2022-10-06T11:27:28.340Z,7.50
2022-10-06T11:30:05.685Z,8.00
2022-10-06T11:32:45.891Z,7.53
2022-10-06T11:35:20.474Z,6.37
2022-10-06T11:37:55.126Z,9.53
2022-10-06T11:40:41.463Z,10.80
2022-10-06T11:43:17.851Z,7.35
2022-10-06T11:46:02.265Z,7.27
2022-10-06T11:48:32.934Z,8.57
2022-10-06T11:51:30.947Z,10.97
2022-10-06T11:53:59.778Z,14.63
2022-10-06T11:56:46.176Z,7.27
2022-10-06T11:59:26.305Z,5.07
2022-10-06T12:01:57.400Z,6.03
2022-10-06T12:04:26.261Z,8.77
2022-10-06T12:07:00.147Z,8.00
2022-10-06T12:09:51.953Z,8.20
2022-10-06T12:13:06.308Z,7.00
2022-10-06T12:19:17.050Z,10.87
2022-10-06T12:21:58.670Z,7.17
2022-10-06T12:24:45.466Z,9.60
2022-10-06T12:27:31.594Z,11.07
2022-10-06T12:30:18.899Z,6.60
2022-10-06T12:32:53.374Z,5.33
2022-10-06T12:35:30.872Z,4.80
2022-10-06T12:38:04.076Z,5.20
2022-10-06T12:40:48.610Z,9.95
2022-10-06T12:43:57.141Z,7.77
2022-10-06T12:46:37.269Z,4.20
2022-10-06T12:49:31.388Z,4.83
2022-10-06T12:52:11.730Z,7.07
2022-10-06T12:54:51.689Z,5.67
2022-10-06T12:57:22.929Z,4.77
2022-10-06T12:59:51.418Z,9.15
2022-10-06T13:02:22.596Z,5.13
2022-10-06T13:04:54.269Z,6.73
2022-10-06T13:07:25.258Z,6.40
2022-10-06T13:09:55.679Z,8.47
2022-10-06T13:12:28.537Z,8.20
2022-10-06T13:15:18.974Z,8.18
2022-10-06T13:17:51.737Z,8.20
2022-10-06T13:20:36.225Z,5.43
2022-10-06T13:23:18.200Z,4.30
2022-10-06T13:25:52.720Z,4.50
2022-10-06T13:28:26.895Z,6.20
2022-10-06T13:30:58.190Z,9.60
2022-10-06T13:33:31.996Z,5.30
2022-10-06T13:36:02.218Z,5.37
2022-10-06T13:38:34.578Z,6.03
2022-10-06T13:41:07.266Z,7.00
2022-10-06T13:46:14.227Z,10.60
2022-10-06T13:48:47.692Z,4.97
2022-10-06T13:51:19.800Z,5.57
2022-10-06T13:53:49.444Z,7.43
2022-10-06T13:56:48.673Z,4.27
2022-10-06T13:59:31.861Z,6.90
2022-10-06T14:02:20.553Z,6.27
2022-10-06T14:05:25.982Z,6.00
2022-10-06T14:07:58.556Z,6.30
2022-10-06T14:10:31.921Z,6.03
2022-10-06T14:13:01.952Z,6.25
2022-10-06T14:15:38.503Z,4.37
2022-10-06T14:18:17.230Z,4.10
2022-10-06T14:20:46.874Z,3.57
2022-10-06T14:23:43.094Z,10.00
2022-10-06T14:26:13.738Z,3.60
2022-10-06T14:28:47.374Z,5.27
2022-10-06T14:31:16.914Z,7.20
2022-10-06T14:33:46.879Z,3.50
2022-10-06T14:36:19.153Z,4.33
2022-10-06T14:38:52.237Z,3.93
2022-10-06T14:41:26.946Z,5.03
2022-10-06T14:43:57.055Z,2.67
2022-10-06T14:46:25.819Z,3.27
2022-10-06T14:48:54.959Z,5.57
2022-10-06T14:51:25.021Z,2.73
2022-10-06T14:53:55.418Z,3.73
2022-10-06T14:56:26.330Z,3.67
2022-10-06T14:58:54.958Z,4.43
2022-10-06T15:01:25.308Z,8.10
2022-10-06T15:03:54.926Z,8.43
2022-10-06T15:06:43.334Z,6.00
2022-10-06T15:09:12.812Z,6.60
2022-10-06T15:11:41.793Z,5.33
2022-10-06T15:14:11.351Z,6.40
2022-10-06T15:16:43.531Z,5.60
2022-10-06T15:19:12.498Z,5.83
2022-10-06T15:21:44.812Z,7.90
2022-10-06T15:24:15.220Z,4.23
2022-10-06T15:27:03.045Z,4.97
2022-10-06T15:29:32.941Z,5.60
2022-10-06T15:32:02.979Z,3.53
2022-10-06T15:34:33.703Z,8.37
2022-10-06T15:37:03.737Z,3.93
2022-10-06T15:39:36.531Z,7.30
2022-10-06T15:42:06.138Z,4.43
2022-10-06T15:44:35.476Z,3.37
2022-10-06T15:47:05.775Z,10.95
2022-10-06T15:49:39.737Z,5.23
2022-10-06T15:52:12.472Z,4.80
2022-10-06T15:54:41.587Z,5.45
2022-10-06T15:57:20.394Z,5.00
2022-10-06T15:59:50.552Z,7.17
2022-10-06T16:02:20.701Z,5.80
2022-10-06T16:05:16.602Z,10.43
2022-10-06T16:07:45.450Z,6.43
2022-10-06T16:10:14.369Z,5.63
2022-10-06T16:12:42.807Z,4.83
2022-10-06T16:15:12.884Z,9.20
2022-10-06T16:17:41.497Z,7.03
2022-10-06T16:20:11.742Z,6.93
2022-10-06T16:22:40.618Z,8.83
2022-10-06T16:25:12.555Z,5.17
2022-10-06T16:27:41.058Z,10.03
2022-10-06T16:30:12.601Z,6.63
2022-10-06T16:32:41.352Z,4.77
2022-10-06T16:35:17.443Z,10.93
2022-10-06T16:37:49.399Z,8.97
2022-10-06T16:40:18.442Z,5.33
2022-10-06T16:42:46.942Z,10.87
2022-10-06T16:45:15.904Z,10.83
2022-10-06T16:47:44.392Z,9.40
2022-10-06T16:50:13.007Z,8.33
2022-10-06T16:52:41.579Z,7.05
2022-10-06T16:55:12.593Z,13.27
2022-10-06T16:57:40.987Z,10.20
2022-10-06T17:00:14.368Z,9.60
2022-10-06T17:02:43.194Z,11.65
2022-10-06T17:05:12.908Z,8.57
2022-10-06T17:07:41.326Z,10.03
2022-10-06T17:10:20.870Z,10.23
2022-10-06T17:12:49.803Z,7.70
2022-10-06T17:15:18.285Z,12.17
2022-10-06T17:17:47.353Z,10.13
2022-10-06T17:20:16.392Z,16.13
2022-10-06T17:22:44.764Z,17.80
2022-10-06T17:25:14.489Z,10.50
2022-10-06T17:27:43.003Z,11.50
2022-10-06T17:30:16.256Z,10.80
2022-10-06T17:32:46.520Z,9.90
2022-10-06T17:35:15.579Z,9.30
2022-10-06T17:37:44.362Z,11.93
2022-10-06T17:40:13.165Z,14.97
2022-10-06T17:42:42.392Z,11.47
2022-10-06T17:45:21.086Z,10.00
2022-10-06T17:47:52.321Z,13.07
2022-10-06T17:50:21.599Z,14.27
2022-10-06T17:52:50.536Z,13.20
2022-10-06T17:55:19.449Z,11.83
2022-10-06T17:57:47.942Z,13.10
2022-10-06T18:00:17.594Z,12.70
2022-10-06T18:02:48.444Z,13.17
2022-10-06T18:05:17.274Z,14.37
2022-10-06T18:07:45.817Z,18.40
2022-10-06T18:10:33.438Z,18.27
2022-10-06T18:13:02.554Z,20.47
2022-10-06T18:15:36.205Z,19.57
2022-10-06T18:18:07.395Z,18.37
2022-10-06T18:20:40.987Z,15.43
2022-10-06T18:23:10.672Z,18.07
2022-10-06T18:25:39.707Z,17.10
2022-10-06T18:28:10.144Z,16.70
2022-10-06T18:30:38.875Z,17.23
2022-10-06T18:36:14.693Z,18.17
2022-10-06T18:38:45.166Z,18.40
2022-10-06T18:41:15.951Z,18.53
2022-10-06T18:43:45.006Z,22.13
2022-10-06T18:46:33.812Z,17.53
2022-10-06T18:49:09.909Z,18.53
2022-10-06T18:51:40.145Z,15.20
2022-10-06T18:54:13.236Z,16.87
2022-10-06T18:56:49.675Z,18.97
2022-10-06T18:59:23.712Z,17.63
2022-10-06T19:01:54.476Z,18.17
2022-10-06T19:04:27.172Z,17.00
2022-10-06T19:06:57.452Z,16.53
2022-10-06T19:09:27.033Z,17.70
2022-10-06T19:11:57.892Z,18.03
2022-10-06T19:14:30.833Z,17.80
2022-10-06T19:26:22.112Z,37.60
2022-10-06T19:28:52.938Z,22.97
2022-10-06T19:31:21.554Z,20.03
2022-10-06T19:33:50.054Z,25.13
2022-10-06T19:36:21.181Z,25.27
2022-10-06T19:38:49.635Z,21.63
2022-10-06T19:41:36.857Z,24.40
2022-10-06T19:44:05.641Z,24.25
2022-10-06T19:46:36.985Z,26.27
2022-10-06T19:49:07.835Z,17.97
2022-10-06T19:51:40.719Z,20.67
2022-10-06T19:54:12.701Z,23.03
2022-10-06T19:56:41.433Z,21.37
2022-10-06T19:59:15.476Z,25.83
2022-10-06T20:01:44.622Z,22.67
2022-10-06T20:04:13.837Z,23.10
2022-10-06T20:06:45.115Z,20.33
2022-10-06T20:09:16.005Z,21.00
2022-10-06T20:11:46.772Z,22.10
2022-10-06T20:14:20.819Z,20.03
2022-10-06T20:16:52.062Z,18.80
2022-10-06T20:19:21.769Z,24.00
2022-10-06T20:21:51.165Z,21.77
2022-10-06T20:24:22.312Z,27.30
2022-10-06T20:26:52.510Z,19.70
2022-10-06T20:29:23.423Z,21.00
2022-10-06T20:31:54.549Z,23.73
2022-10-06T20:34:24.943Z,20.90
2022-10-06T20:36:56.210Z,21.87
2022-10-06T20:39:44.237Z,22.50
2022-10-06T20:42:15.264Z,24.07
2022-10-06T20:44:48.462Z,20.93
2022-10-06T20:47:17.144Z,22.43
2022-10-06T20:49:53.735Z,22.50
2022-10-06T20:52:23.631Z,18.67
2022-10-06T20:54:52.401Z,22.67
2022-10-06T20:57:22.329Z,21.17
2022-10-06T20:59:52.092Z,29.43
2022-10-06T21:02:23.219Z,27.13
2022-10-06T21:04:51.789Z,29.67
2022-10-06T21:07:21.083Z,28.33
2022-10-06T21:09:52.141Z,31.57
2022-10-06T21:12:20.949Z,32.47
2022-10-06T21:14:57.028Z,38.27
2022-10-06T21:17:27.200Z,40.37
2022-10-06T21:19:55.725Z,39.67
2022-10-06T21:22:24.480Z,40.67
2022-10-06T21:24:53.051Z,40.73
2022-10-06T21:27:21.541Z,36.20
2022-10-06T21:29:50.707Z,37.97
2022-10-06T21:32:20.088Z,35.80
2022-10-06T21:34:49.891Z,34.73
2022-10-06T21:37:20.016Z,35.03
2022-10-06T21:39:50.935Z,33.97
2022-10-06T21:42:19.385Z,35.20
2022-10-06T21:44:49.916Z,30.37
2022-10-06T21:47:18.507Z,32.03
2022-10-06T21:49:47.034Z,34.60
2022-10-06T21:52:15.470Z,35.00
2022-10-06T21:54:47.732Z,27.40
2022-10-06T21:57:17.099Z,29.13
2022-10-06T21:59:50.655Z,30.83
2022-10-06T22:02:19.323Z,30.95
2022-10-06T22:05:02.706Z,32.67
2022-10-06T22:07:31.383Z,24.23
2022-10-06T22:10:02.284Z,25.73
2022-10-06T22:12:31.169Z,26.47
2022-10-06T22:15:02.153Z,25.53
2022-10-06T22:17:33.382Z,25.53
2022-10-06T22:20:05.224Z,27.00
2022-10-06T22:22:34.023Z,24.30
2022-10-06T22:25:02.645Z,24.97
2022-10-06T22:27:31.833Z,26.37
2022-10-06T22:30:01.202Z,19.87
2022-10-06T22:32:31.115Z,26.27
2022-10-06T22:35:02.054Z,25.73
2022-10-06T22:37:30.531Z,22.80
2022-10-06T22:40:01.145Z,21.50
2022-10-06T22:42:31.550Z,21.93
2022-10-06T22:45:00.713Z,23.70
2022-10-06T22:47:30.465Z,22.73
2022-10-06T22:49:59.035Z,23.27
2022-10-06T22:52:28.597Z,22.27
2022-10-06T22:54:57.035Z,23.97
2022-10-06T22:57:25.813Z,22.23
2022-10-06T22:59:54.549Z,30.45
2022-10-06T23:02:23.273Z,22.13
2022-10-06T23:04:51.860Z,24.47
2022-10-06T23:07:20.402Z,21.77
2022-10-06T23:09:50.120Z,27.47
2022-10-06T23:12:19.009Z,21.47
2022-10-06T23:14:47.505Z,26.30
2022-10-06T23:17:15.971Z,29.33
2022-10-06T23:19:44.465Z,20.70
2022-10-06T23:22:13.487Z,22.93
2022-10-06T23:24:41.943Z,24.40
2022-10-06T23:27:10.824Z,23.97
2022-10-06T23:29:39.341Z,20.33
2022-10-06T23:32:09.822Z,21.57
2022-10-06T23:34:38.581Z,22.77
2022-10-06T23:37:07.246Z,19.00
2022-10-06T23:39:35.999Z,22.40
2022-10-06T23:42:05.095Z,19.87
2022-10-06T23:44:33.878Z,21.40
2022-10-06T23:47:04.918Z,17.70
2022-10-06T23:49:33.819Z,19.53
2022-10-06T23:52:02.670Z,17.07
2022-10-06T23:54:31.215Z,18.93
2022-10-06T23:56:59.787Z,20.87
2022-10-06T23:59:29.106Z,18.23
